createdAt,value
2023-06-13T00:02:07.046Z,4.03
2023-06-13T00:04:39.496Z,3.97
2023-06-13T00:07:14.711Z,4.10
2023-06-13T00:09:57.395Z,3.80
2023-06-13T00:12:42.915Z,4.33
2023-06-13T00:15:16.342Z,4.23
2023-06-13T00:17:59.174Z,4.10
2023-06-13T00:20:43.747Z,3.90
2023-06-13T00:23:35.583Z,4.13
2023-06-13T00:26:16.487Z,3.80
2023-06-13T00:29:09.388Z,3.77
2023-06-13T00:31:50.746Z,4.20
2023-06-13T00:34:37.672Z,3.63
2023-06-13T00:37:35.963Z,4.10
2023-06-13T00:40:24.172Z,3.90
2023-06-13T00:43:32.489Z,3.60
2023-06-13T00:46:19.364Z,3.63
2023-06-13T00:49:09.984Z,3.43
2023-06-13T00:51:43.528Z,3.27
2023-06-13T00:54:18.620Z,3.57
2023-06-13T00:57:00.256Z,3.53
2023-06-13T00:59:46.185Z,3.40
2023-06-13T01:02:34.718Z,3.23
2023-06-13T01:05:30.582Z,3.50
2023-06-13T01:08:27.399Z,3.40
2023-06-13T01:11:19.260Z,3.20
2023-06-13T01:14:33.223Z,3.50
2023-06-13T01:17:26.898Z,3.33
2023-06-13T01:20:06.592Z,3.17
2023-06-13T01:22:59.015Z,3.50
2023-06-13T01:26:04.687Z,3.33
2023-06-13T01:28:59.162Z,3.40
2023-06-13T01:31:38.966Z,3.60
2023-06-13T01:34:25.735Z,3.17
2023-06-13T01:37:20.578Z,2.87
2023-06-13T01:39:54.365Z,3.63
2023-06-13T01:42:36.563Z,3.20
2023-06-13T01:45:44.658Z,3.10
2023-06-13T01:48:33.800Z,3.10
2023-06-13T01:51:28.422Z,3.17
2023-06-13T01:54:12.878Z,3.47
2023-06-13T01:57:18.490Z,3.00
2023-06-13T02:00:07.542Z,3.10
2023-06-13T02:03:27.271Z,3.77
2023-06-13T02:06:17.953Z,3.43
2023-06-13T02:09:15.993Z,3.40
2023-06-13T02:11:59.940Z,3.57
2023-06-13T02:14:44.282Z,2.80
2023-06-13T02:17:28.267Z,3.13
2023-06-13T02:20:03.257Z,3.50
2023-06-13T02:22:35.464Z,3.13
2023-06-13T02:25:24.000Z,3.60
2023-06-13T02:28:06.966Z,3.20
2023-06-13T02:30:54.151Z,3.17
2023-06-13T02:33:26.536Z,3.33
2023-06-13T02:36:22.243Z,2.87
2023-06-13T02:39:11.104Z,3.10
2023-06-13T02:41:43.741Z,3.07
2023-06-13T02:44:24.609Z,3.13
2023-06-13T02:47:28.008Z,3.37
2023-06-13T02:50:13.164Z,3.30
2023-06-13T02:52:55.394Z,3.17
2023-06-13T02:55:48.189Z,3.20
2023-06-13T02:58:19.168Z,3.67
2023-06-13T03:01:04.447Z,3.03
2023-06-13T03:03:51.285Z,3.00
2023-06-13T03:06:35.940Z,3.10
2023-06-13T03:09:11.158Z,3.10
2023-06-13T03:11:48.045Z,3.37
2023-06-13T03:14:27.850Z,3.17
2023-06-13T03:17:09.945Z,3.63
2023-06-13T03:20:19.667Z,3.33
2023-06-13T03:22:46.878Z,3.43
2023-06-13T03:25:32.350Z,3.40
2023-06-13T03:28:15.246Z,3.17
2023-06-13T03:31:02.105Z,3.40
2023-06-13T03:33:37.985Z,3.53
2023-06-13T03:36:24.517Z,3.73
2023-06-13T03:39:20.794Z,3.60
2023-06-13T03:42:20.550Z,3.67
2023-06-13T03:45:09.157Z,3.40
2023-06-13T03:47:46.666Z,3.60
2023-06-13T03:50:18.113Z,3.33
2023-06-13T03:53:08.629Z,3.63
2023-06-13T03:55:46.724Z,3.70
2023-06-13T03:58:42.954Z,3.60
2023-06-13T04:01:14.279Z,3.67
2023-06-13T04:03:57.302Z,3.40
2023-06-13T04:06:32.849Z,3.43
2023-06-13T04:09:14.690Z,3.53
2023-06-13T04:12:01.057Z,3.50
2023-06-13T04:14:50.332Z,3.70
2023-06-13T04:17:39.353Z,3.27
2023-06-13T04:20:35.918Z,3.53
2023-06-13T04:23:18.527Z,3.87
2023-06-13T04:26:04.524Z,3.43
2023-06-13T04:28:43.195Z,3.70
2023-06-13T04:31:40.501Z,4.03
2023-06-13T04:34:15.385Z,4.10
2023-06-13T04:37:00.717Z,3.70
2023-06-13T04:39:58.167Z,3.80
2023-06-13T04:42:44.612Z,3.93
2023-06-13T04:45:26.571Z,3.87
2023-06-13T04:48:11.303Z,3.33
2023-06-13T04:50:56.068Z,3.80
2023-06-13T04:53:39.823Z,3.90
2023-06-13T04:56:11.517Z,3.67
2023-06-13T04:58:52.819Z,3.83
2023-06-13T05:01:29.708Z,4.00
2023-06-13T05:04:07.930Z,4.33
2023-06-13T05:06:41.423Z,3.37
2023-06-13T05:09:15.674Z,3.47
2023-06-13T05:12:03.459Z,3.30
2023-06-13T05:14:44.128Z,3.73
2023-06-13T05:17:20.160Z,4.23
2023-06-13T05:19:54.443Z,3.73
2023-06-13T05:22:41.141Z,3.83
2023-06-13T05:25:27.583Z,4.10
2023-06-13T05:28:16.190Z,3.87
2023-06-13T05:30:58.341Z,3.70
2023-06-13T05:33:45.738Z,3.30
2023-06-13T05:36:53.480Z,3.80
2023-06-13T05:39:24.809Z,3.83
2023-06-13T05:42:18.099Z,3.80
2023-06-13T05:45:11.385Z,3.37
2023-06-13T05:48:02.051Z,3.57
2023-06-13T05:50:33.289Z,3.57
2023-06-13T05:53:17.935Z,3.47
2023-06-13T05:56:15.728Z,3.27
2023-06-13T05:59:18.302Z,3.37
2023-06-13T06:02:12.635Z,3.13
2023-06-13T06:04:46.909Z,3.10
2023-06-13T06:07:42.567Z,3.07
2023-06-13T06:10:32.573Z,3.70
2023-06-13T06:13:03.609Z,3.50
2023-06-13T06:15:50.744Z,3.30
2023-06-13T06:18:23.328Z,3.30
2023-06-13T06:21:08.523Z,2.97
2023-06-13T06:23:44.558Z,2.87
2023-06-13T06:26:18.286Z,3.43
2023-06-13T06:28:49.722Z,3.10
2023-06-13T06:31:21.578Z,3.37
2023-06-13T06:33:56.118Z,3.47
2023-06-13T06:36:32.248Z,3.23
2023-06-13T06:39:02.326Z,3.10
2023-06-13T06:41:34.160Z,3.50
2023-06-13T06:44:04.542Z,3.27
2023-06-13T06:46:34.864Z,3.27
2023-06-13T06:49:05.121Z,3.20
2023-06-13T06:51:35.528Z,3.20
2023-06-13T06:54:06.123Z,3.00
2023-06-13T06:56:37.637Z,3.57
2023-06-13T06:59:07.553Z,3.20
2023-06-13T07:01:38.358Z,3.63
2023-06-13T07:04:08.596Z,3.30
2023-06-13T07:06:42.111Z,3.17
2023-06-13T07:09:13.082Z,3.37
2023-06-13T07:11:44.946Z,3.07
2023-06-13T07:14:15.353Z,3.10
2023-06-13T07:16:46.486Z,3.37
2023-06-13T07:19:16.439Z,3.10
2023-06-13T07:21:48.510Z,3.37
2023-06-13T07:24:20.096Z,2.90
2023-06-13T07:26:53.870Z,3.30
2023-06-13T07:29:27.087Z,3.50
2023-06-13T07:31:58.056Z,2.93
2023-06-13T07:34:50.464Z,3.40
2023-06-13T07:37:25.906Z,3.00
2023-06-13T07:39:56.434Z,3.20
2023-06-13T07:42:28.532Z,3.20
2023-06-13T07:44:59.851Z,3.10
2023-06-13T07:47:32.558Z,3.40
2023-06-13T07:50:03.951Z,3.30
2023-06-13T07:52:37.798Z,3.23
2023-06-13T07:55:14.603Z,3.20
2023-06-13T08:00:25.800Z,3.10
2023-06-13T08:02:57.192Z,3.30
2023-06-13T08:05:29.571Z,3.47
2023-06-13T08:08:01.977Z,3.33
2023-06-13T08:10:35.741Z,3.30
2023-06-13T08:13:08.751Z,3.23
2023-06-13T08:15:42.064Z,3.30
2023-06-13T08:18:15.660Z,2.90
2023-06-13T08:20:53.552Z,3.23
2023-06-13T08:23:38.566Z,3.13
2023-06-13T08:26:34.531Z,3.10
2023-06-13T08:29:30.062Z,3.27
2023-06-13T08:32:12.474Z,3.20
2023-06-13T08:35:01.102Z,3.27
2023-06-13T08:37:40.176Z,3.30
2023-06-13T08:40:23.586Z,3.43
2023-06-13T08:43:10.274Z,3.00
2023-06-13T08:46:01.782Z,3.40
2023-06-13T08:48:41.896Z,3.20
2023-06-13T08:51:25.728Z,3.20
2023-06-13T08:54:08.432Z,3.00
2023-06-13T08:56:52.436Z,3.17
2023-06-13T08:59:36.958Z,3.20
2023-06-13T09:02:34.388Z,2.80
2023-06-13T09:05:21.153Z,2.93
2023-06-13T09:11:12.381Z,3.67
2023-06-13T09:14:05.358Z,3.23
2023-06-13T09:16:56.318Z,3.00
2023-06-13T09:20:10.681Z,3.57
2023-06-13T09:22:44.722Z,2.70
2023-06-13T09:25:20.186Z,2.93
2023-06-13T09:28:04.594Z,3.40
2023-06-13T09:30:39.162Z,3.03
2023-06-13T09:33:22.271Z,3.13
2023-06-13T09:36:24.903Z,3.00
2023-06-13T09:39:06.232Z,3.40
2023-06-13T09:42:04.496Z,3.30
2023-06-13T09:44:57.890Z,3.40
2023-06-13T09:47:53.592Z,3.37
2023-06-13T09:50:36.039Z,3.07
2023-06-13T09:53:12.360Z,3.67
2023-06-13T09:55:55.562Z,3.00
2023-06-13T09:58:33.395Z,3.27
2023-06-13T10:01:25.343Z,3.23
2023-06-13T10:04:07.766Z,3.00
2023-06-13T10:06:56.507Z,3.40
2023-06-13T10:09:49.919Z,3.20
2023-06-13T10:13:00.775Z,3.40
2023-06-13T10:15:46.639Z,3.27
2023-06-13T10:18:42.917Z,2.97
2023-06-13T10:21:28.079Z,2.90
2023-06-13T10:24:11.343Z,2.80
2023-06-13T10:27:04.230Z,2.80
2023-06-13T10:30:25.925Z,2.80
2023-06-13T10:33:45.929Z,2.77
2023-06-13T10:36:48.250Z,3.00
2023-06-13T10:40:00.381Z,3.20
2023-06-13T10:42:43.785Z,2.97
2023-06-13T10:45:29.696Z,3.30
2023-06-13T10:48:17.487Z,3.07
2023-06-13T10:51:01.345Z,2.87
2023-06-13T10:53:46.312Z,3.03
2023-06-13T10:56:19.720Z,3.20
2023-06-13T10:59:05.869Z,3.00
2023-06-13T11:01:58.221Z,3.07
2023-06-13T11:04:56.517Z,3.10
2023-06-13T11:07:35.307Z,2.73
2023-06-13T11:10:17.661Z,3.03
2023-06-13T11:12:49.575Z,3.30
2023-06-13T11:15:49.601Z,3.00
2023-06-13T11:18:36.999Z,3.13
2023-06-13T11:21:17.506Z,3.20
2023-06-13T11:23:57.882Z,3.03
2023-06-13T11:26:49.620Z,3.20
2023-06-13T11:29:41.811Z,3.17
2023-06-13T11:32:34.093Z,3.00
2023-06-13T11:35:18.380Z,3.27
2023-06-13T11:38:17.246Z,3.30
2023-06-13T11:41:08.576Z,3.23
2023-06-13T11:43:58.499Z,3.07
2023-06-13T11:46:48.226Z,2.80
2023-06-13T11:49:32.398Z,3.10
2023-06-13T11:52:17.760Z,3.30
2023-06-13T11:54:52.439Z,3.27
2023-06-13T11:57:29.976Z,3.17
2023-06-13T12:00:17.428Z,2.80
2023-06-13T12:03:01.686Z,3.03
2023-06-13T12:05:58.462Z,3.17
2023-06-13T12:08:49.245Z,3.10
2023-06-13T12:11:47.027Z,2.90
2023-06-13T12:14:35.278Z,2.63
2023-06-13T12:17:11.215Z,3.13
2023-06-13T12:20:13.201Z,3.10
2023-06-13T12:23:17.340Z,2.70
2023-06-13T12:26:10.063Z,3.13
2023-06-13T12:29:06.444Z,3.30
2023-06-13T12:32:02.294Z,2.90
2023-06-13T12:34:36.351Z,3.03
2023-06-13T12:37:20.796Z,3.17
2023-06-13T12:40:14.364Z,2.53
2023-06-13T12:43:13.165Z,2.80
2023-06-13T12:45:48.819Z,2.73
2023-06-13T12:48:36.237Z,2.57
2023-06-13T12:51:11.146Z,2.77
2023-06-13T12:53:54.973Z,2.70
2023-06-13T12:56:39.119Z,3.30
2023-06-13T12:59:21.601Z,3.13
2023-06-13T13:02:03.886Z,2.65
2023-06-13T13:04:39.110Z,2.85
2023-06-13T13:07:20.928Z,2.65
2023-06-13T13:10:04.599Z,2.83
2023-06-13T13:12:40.366Z,2.70
2023-06-13T13:15:32.206Z,2.63
2023-06-13T13:18:08.025Z,2.80
2023-06-13T13:21:04.593Z,2.85
2023-06-13T13:23:51.409Z,2.72
2023-06-13T13:26:32.091Z,2.50
2023-06-13T13:29:22.815Z,2.80
2023-06-13T13:32:01.278Z,2.78
2023-06-13T13:34:41.242Z,2.33
2023-06-13T13:37:12.600Z,2.75
2023-06-13T13:39:50.510Z,3.03
2023-06-13T13:42:40.622Z,2.67
2023-06-13T13:45:47.884Z,2.60
2023-06-13T13:48:25.649Z,2.78
2023-06-13T13:51:10.077Z,2.90
2023-06-13T13:53:42.538Z,2.55
2023-06-13T13:56:39.529Z,2.85
2023-06-13T13:59:13.798Z,2.70
2023-06-13T14:01:54.586Z,3.00
2023-06-13T14:04:31.001Z,2.83
2023-06-13T14:07:09.527Z,2.33
2023-06-13T14:09:40.040Z,2.70
2023-06-13T14:12:12.702Z,2.60
2023-06-13T14:15:01.635Z,2.67
2023-06-13T14:17:53.835Z,2.58
2023-06-13T14:20:46.880Z,2.55
2023-06-13T14:23:23.930Z,2.50
2023-06-13T14:26:14.146Z,2.60
2023-06-13T14:29:00.930Z,2.70
2023-06-13T14:31:45.839Z,2.85
2023-06-13T14:34:47.406Z,2.45
2023-06-13T14:37:40.171Z,2.33
2023-06-13T14:40:39.961Z,2.63
2023-06-13T14:43:21.096Z,2.40
2023-06-13T14:45:52.275Z,2.90
2023-06-13T14:48:29.977Z,2.30
2023-06-13T14:51:28.941Z,2.60
2023-06-13T14:54:23.023Z,2.90
2023-06-13T14:57:12.197Z,2.72
2023-06-13T14:59:44.894Z,2.58
2023-06-13T15:02:39.533Z,2.83
2023-06-13T15:05:36.140Z,2.65
2023-06-13T15:08:49.361Z,3.10
2023-06-13T15:11:43.168Z,2.78
2023-06-13T15:14:15.677Z,2.83
2023-06-13T15:16:59.768Z,2.90
2023-06-13T15:19:52.050Z,2.97
2023-06-13T15:22:40.263Z,2.60
2023-06-13T15:25:30.157Z,2.70
2023-06-13T15:28:32.240Z,2.70
2023-06-13T15:31:21.009Z,2.83
2023-06-13T15:33:56.761Z,2.70
2023-06-13T15:36:33.096Z,2.55
2023-06-13T15:39:23.317Z,2.72
2023-06-13T15:42:37.508Z,3.03
2023-06-13T15:45:12.225Z,2.72
2023-06-13T15:47:58.416Z,2.70
2023-06-13T15:50:49.556Z,2.67
2023-06-13T15:53:21.518Z,2.78
2023-06-13T15:55:53.095Z,2.70
2023-06-13T15:59:01.356Z,2.42
2023-06-13T16:01:59.816Z,2.72
2023-06-13T16:04:30.939Z,2.47
2023-06-13T16:07:11.841Z,2.45
2023-06-13T16:10:05.960Z,2.40
2023-06-13T16:12:54.809Z,2.65
2023-06-13T16:15:34.859Z,2.90
2023-06-13T16:18:21.509Z,2.70
2023-06-13T16:20:54.389Z,2.47
2023-06-13T16:23:29.287Z,2.70
2023-06-13T16:26:09.802Z,2.60
2023-06-13T16:28:54.017Z,3.00
2023-06-13T16:31:35.386Z,2.65
2023-06-13T16:34:14.739Z,2.60
2023-06-13T16:36:59.784Z,2.80
2023-06-13T16:39:34.875Z,2.70
2023-06-13T16:42:19.733Z,2.90
2023-06-13T16:45:00.533Z,2.95
2023-06-13T16:47:54.444Z,3.03
2023-06-13T16:50:36.867Z,2.65
2023-06-13T16:53:27.566Z,2.67
2023-06-13T16:56:02.110Z,2.70
2023-06-13T16:58:49.733Z,2.60
2023-06-13T17:01:33.687Z,2.70
2023-06-13T17:04:32.971Z,2.95
2023-06-13T17:07:05.752Z,3.05
2023-06-13T17:09:50.025Z,2.50
2023-06-13T17:12:23.334Z,2.70
2023-06-13T17:14:54.152Z,2.55
2023-06-13T17:17:27.071Z,2.97
2023-06-13T17:20:17.211Z,2.80
2023-06-13T17:22:48.909Z,2.90
2023-06-13T17:25:35.108Z,2.53
2023-06-13T17:28:23.003Z,3.17
2023-06-13T17:31:19.566Z,2.53
2023-06-13T17:33:57.853Z,2.55
2023-06-13T17:37:11.295Z,2.58
2023-06-13T17:39:54.348Z,2.60
2023-06-13T17:42:36.254Z,2.47
2023-06-13T17:45:07.304Z,2.35
2023-06-13T17:48:04.979Z,2.38
2023-06-13T17:51:06.474Z,2.70
2023-06-13T17:53:51.974Z,2.42
2023-06-13T17:56:28.140Z,2.70
2023-06-13T17:59:07.921Z,2.58
2023-06-13T18:01:42.246Z,2.47
2023-06-13T18:04:32.559Z,2.60
2023-06-13T18:07:19.670Z,2.58
2023-06-13T18:10:15.020Z,2.70
2023-06-13T18:12:57.558Z,2.63
2023-06-13T18:15:48.697Z,2.77
2023-06-13T18:18:32.454Z,2.77
2023-06-13T18:21:07.399Z,2.53
2023-06-13T18:23:45.126Z,2.53
2023-06-13T18:26:52.689Z,2.60
2023-06-13T18:29:27.941Z,3.10
2023-06-13T18:32:08.972Z,2.87
2023-06-13T18:34:43.474Z,2.67
2023-06-13T18:37:16.376Z,2.77
2023-06-13T18:40:01.937Z,2.73
2023-06-13T18:42:57.377Z,2.63
2023-06-13T18:45:37.951Z,2.70
2023-06-13T18:48:11.892Z,3.00
2023-06-13T18:50:47.295Z,3.13
2023-06-13T18:53:32.918Z,3.00
2023-06-13T18:56:16.361Z,3.10
2023-06-13T18:59:02.316Z,3.80
2023-06-13T19:01:47.115Z,3.00
2023-06-13T19:04:38.887Z,3.40
2023-06-13T19:07:26.345Z,2.90
2023-06-13T19:10:22.567Z,3.47
2023-06-13T19:13:11.166Z,3.00
2023-06-13T19:15:49.026Z,3.17
2023-06-13T19:18:27.237Z,3.00
2023-06-13T19:21:02.430Z,3.17
2023-06-13T19:23:33.445Z,3.03
2023-06-13T19:26:14.099Z,2.97
2023-06-13T19:28:45.085Z,3.40
2023-06-13T19:31:27.843Z,3.13
2023-06-13T19:34:08.555Z,3.13
2023-06-13T19:37:16.446Z,3.00
2023-06-13T19:39:49.861Z,3.23
2023-06-13T19:42:35.393Z,3.00
2023-06-13T19:45:20.809Z,3.30
2023-06-13T19:48:27.267Z,3.33
2023-06-13T19:51:18.579Z,3.40
2023-06-13T19:54:07.315Z,3.20
2023-06-13T19:56:39.076Z,3.30
2023-06-13T19:59:19.904Z,3.17
2023-06-13T20:02:00.567Z,3.33
2023-06-13T20:04:41.340Z,3.13
2023-06-13T20:07:17.127Z,3.13
2023-06-13T20:09:53.641Z,3.37
2023-06-13T20:12:24.675Z,3.23
2023-06-13T20:15:09.777Z,3.37
2023-06-13T20:17:47.458Z,3.50
2023-06-13T20:20:23.764Z,3.20
2023-06-13T20:23:01.064Z,3.17
2023-06-13T20:25:43.209Z,3.20
2023-06-13T20:28:32.170Z,3.60
2023-06-13T20:31:22.592Z,3.57
2023-06-13T20:34:18.106Z,3.43
2023-06-13T20:37:13.609Z,3.23
2023-06-13T20:40:02.148Z,3.00
2023-06-13T20:42:42.262Z,3.33
2023-06-13T20:45:31.272Z,3.07
2023-06-13T20:48:17.778Z,3.20
2023-06-13T20:50:50.849Z,3.33
2023-06-13T20:53:36.527Z,3.40
2023-06-13T20:56:24.498Z,3.30
2023-06-13T20:59:16.309Z,3.60
2023-06-13T21:01:56.386Z,3.40
2023-06-13T21:04:41.057Z,3.73
2023-06-13T21:07:43.975Z,3.73
2023-06-13T21:10:39.384Z,3.47
2023-06-13T21:13:20.237Z,3.50
2023-06-13T21:16:09.942Z,3.20
2023-06-13T21:18:55.256Z,3.47
2023-06-13T21:21:38.121Z,3.27
2023-06-13T21:24:12.020Z,3.37
2023-06-13T21:26:50.419Z,3.47
2023-06-13T21:29:26.558Z,3.20
2023-06-13T21:32:09.538Z,3.50
2023-06-13T21:34:44.382Z,3.30
2023-06-13T21:37:26.085Z,3.43
2023-06-13T21:40:02.753Z,3.30
2023-06-13T21:42:38.351Z,3.47
2023-06-13T21:45:30.196Z,3.60
2023-06-13T21:48:41.236Z,3.70
2023-06-13T21:51:30.937Z,3.70
2023-06-13T21:54:20.983Z,3.33
2023-06-13T21:56:57.916Z,3.47
2023-06-13T22:00:02.268Z,3.60
2023-06-13T22:02:53.731Z,4.00
2023-06-13T22:05:32.758Z,3.70
2023-06-13T22:08:04.795Z,3.90
2023-06-13T22:10:38.246Z,3.60
2023-06-13T22:13:17.117Z,3.70
2023-06-13T22:15:58.233Z,3.60
2023-06-13T22:18:35.690Z,3.63
2023-06-13T22:21:19.808Z,3.47
2023-06-13T22:24:00.974Z,3.67
2023-06-13T22:27:01.161Z,3.50
2023-06-13T22:29:57.397Z,3.77
2023-06-13T22:33:21.593Z,3.60
2023-06-13T22:35:56.001Z,3.70
2023-06-13T22:38:29.023Z,3.37
2023-06-13T22:41:14.063Z,3.43
2023-06-13T22:44:00.074Z,3.70
2023-06-13T22:46:48.531Z,3.50
2023-06-13T22:49:38.497Z,3.77
2023-06-13T22:52:12.749Z,3.40
2023-06-13T22:54:48.247Z,3.57
2023-06-13T22:57:43.330Z,3.80
2023-06-13T23:00:19.143Z,3.33
2023-06-13T23:03:30.487Z,3.33
2023-06-13T23:06:13.130Z,3.67
2023-06-13T23:08:51.228Z,3.40
2023-06-13T23:11:49.564Z,3.77
2023-06-13T23:14:38.740Z,3.73
2023-06-13T23:17:45.014Z,3.80
2023-06-13T23:20:36.753Z,3.40
2023-06-13T23:23:36.500Z,3.97
2023-06-13T23:26:37.571Z,3.50
2023-06-13T23:29:31.114Z,3.90
2023-06-13T23:32:20.331Z,3.70
2023-06-13T23:35:14.196Z,3.53
2023-06-13T23:38:07.883Z,3.90
2023-06-13T23:41:18.968Z,3.60
2023-06-13T23:44:12.650Z,3.90
2023-06-13T23:47:14.149Z,4.00
2023-06-13T23:50:03.537Z,3.67
2023-06-13T23:53:02.137Z,4.10
2023-06-13T23:55:51.215Z,4.23
2023-06-13T23:58:53.073Z,4.00
